Diplomat, Indiana
Current Conditions -  °F | °C
As of 2:54 PM on Tuesday 21 Oct 2014 (Local Time) from KFWA Reporting Station
Overcast Overcast  
Wind Chill: 52°   Ceiling: 3400
Heat Index: 52°   Visibility: 10mi
Dew Point: 43°   Wind: 9mph
Humidity: 71%   Direction: 350°N
Pressure: 30.09"   Gusts: NA
Location:  41.0028°N, 85.0396°W
Report Text: KFWA 211854Z 35008KT 10SM FEW025 OVC034 11/06 A3009 RMK AO2 SLP192 T01110061
Loading
Personal Weather Stations






























Interactive Weather Map
Tropical Storm Tracking
New forecast layout! Learn more

10-Day Weather Forecast

Advertisements
Track Severe Weather on mobile